sensor_id;sensor_type;location;lat;lon;timestamp;P1;durP1;ratioP1;P2;durP2;ratioP2
27580;SDS011;63557;52.302;7.964;2023-11-18T00:00:47;199.87;;;46.77;;
27580;SDS011;63557;52.302;7.964;2023-11-18T00:05:47;221.80;;;60.03;;
27580;SDS011;63557;52.302;7.964;2023-11-18T00:10:47;243.57;;;59.83;;
27580;SDS011;63557;52.302;7.964;2023-11-18T00:15:48;199.88;;;49.13;;
27580;SDS011;63557;52.302;7.964;2023-11-18T00:20:48;191.27;;;42.53;;
27580;SDS011;63557;52.302;7.964;2023-11-18T00:25:50;177.25;;;41.78;;
27580;SDS011;63557;52.302;7.964;2023-11-18T00:30:52;112.38;;;40.75;;
27580;SDS011;63557;52.302;7.964;2023-11-18T00:35:53;153.37;;;39.17;;
27580;SDS011;63557;52.302;7.964;2023-11-18T00:40:53;100.70;;;35.87;;
27580;SDS011;63557;52.302;7.964;2023-11-18T00:45:53;94.32;;;38.30;;
27580;SDS011;63557;52.302;7.964;2023-11-18T00:50:54;79.53;;;37.75;;
27580;SDS011;63557;52.302;7.964;2023-11-18T00:55:56;83.97;;;38.35;;
27580;SDS011;63557;52.302;7.964;2023-11-18T01:00:56;85.57;;;38.35;;
27580;SDS011;63557;52.302;7.964;2023-11-18T01:05:56;105.27;;;41.07;;
27580;SDS011;63557;52.302;7.964;2023-11-18T01:10:57;297.20;;;53.20;;
27580;SDS011;63557;52.302;7.964;2023-11-18T01:15:57;292.60;;;56.83;;
27580;SDS011;63557;52.302;7.964;2023-11-18T01:20:57;217.20;;;54.90;;
27580;SDS011;63557;52.302;7.964;2023-11-18T01:25:59;244.90;;;55.85;;
27580;SDS011;63557;52.302;7.964;2023-11-18T01:31:00;413.88;;;62.75;;
27580;SDS011;63557;52.302;7.964;2023-11-18T01:36:00;427.63;;;61.30;;
27580;SDS011;63557;52.302;7.964;2023-11-18T01:41:01;451.17;;;60.75;;
27580;SDS011;63557;52.302;7.964;2023-11-18T01:46:02;382.85;;;56.40;;
27580;SDS011;63557;52.302;7.964;2023-11-18T01:51:03;386.35;;;56.05;;
27580;SDS011;63557;52.302;7.964;2023-11-18T01:56:05;453.92;;;57.53;;
27580;SDS011;63557;52.302;7.964;2023-11-18T02:01:05;215.23;;;54.30;;
27580;SDS011;63557;52.302;7.964;2023-11-18T02:06:08;362.40;;;51.13;;
27580;SDS011;63557;52.302;7.964;2023-11-18T02:21:27;443.40;;;52.88;;
27580;SDS011;63557;52.302;7.964;2023-11-18T02:26:29;298.95;;;46.78;;
27580;SDS011;63557;52.302;7.964;2023-11-18T02:31:34;243.25;;;48.03;;
27580;SDS011;63557;52.302;7.964;2023-11-18T02:36:41;172.45;;;46.13;;
27580;SDS011;63557;52.302;7.964;2023-11-18T02:41:46;337.48;;;47.45;;
27580;SDS011;63557;52.302;7.964;2023-11-18T02:46:47;183.18;;;42.00;;
27580;SDS011;63557;52.302;7.964;2023-11-18T02:51:48;202.82;;;43.38;;
27580;SDS011;63557;52.302;7.964;2023-11-18T02:56:49;83.80;;;41.28;;
27580;SDS011;63557;52.302;7.964;2023-11-18T03:01:53;81.10;;;40.80;;
27580;SDS011;63557;52.302;7.964;2023-11-18T03:06:53;78.17;;;40.03;;
27580;SDS011;63557;52.302;7.964;2023-11-18T03:11:54;76.50;;;41.30;;
27580;SDS011;63557;52.302;7.964;2023-11-18T03:16:55;74.20;;;38.45;;
27580;SDS011;63557;52.302;7.964;2023-11-18T03:21:55;76.45;;;39.28;;
27580;SDS011;63557;52.302;7.964;2023-11-18T03:26:56;89.22;;;39.47;;
27580;SDS011;63557;52.302;7.964;2023-11-18T03:31:56;93.15;;;36.95;;
27580;SDS011;63557;52.302;7.964;2023-11-18T03:36:57;76.13;;;34.80;;
27580;SDS011;63557;52.302;7.964;2023-11-18T03:41:57;105.37;;;35.50;;
27580;SDS011;63557;52.302;7.964;2023-11-18T03:46:58;116.82;;;34.90;;
27580;SDS011;63557;52.302;7.964;2023-11-18T03:51:59;108.30;;;35.03;;
27580;SDS011;63557;52.302;7.964;2023-11-18T03:56:59;196.40;;;34.72;;
27580;SDS011;63557;52.302;7.964;2023-11-18T04:02:00;160.30;;;34.03;;
27580;SDS011;63557;52.302;7.964;2023-11-18T04:07:00;161.33;;;31.43;;
27580;SDS011;63557;52.302;7.964;2023-11-18T04:12:01;214.18;;;33.95;;
27580;SDS011;63557;52.302;7.964;2023-11-18T04:17:01;204.38;;;32.80;;
27580;SDS011;63557;52.302;7.964;2023-11-18T04:22:02;313.48;;;39.85;;
27580;SDS011;63557;52.302;7.964;2023-11-18T04:27:02;246.52;;;34.33;;
27580;SDS011;63557;52.302;7.964;2023-11-18T04:32:03;232.77;;;33.40;;
27580;SDS011;63557;52.302;7.964;2023-11-18T04:37:04;271.60;;;40.97;;
27580;SDS011;63557;52.302;7.964;2023-11-18T04:42:05;179.27;;;35.58;;
27580;SDS011;63557;52.302;7.964;2023-11-18T04:47:06;344.02;;;40.45;;
27580;SDS011;63557;52.302;7.964;2023-11-18T04:52:06;189.05;;;40.75;;
27580;SDS011;63557;52.302;7.964;2023-11-18T04:57:07;220.70;;;36.90;;
27580;SDS011;63557;52.302;7.964;2023-11-18T05:02:09;334.48;;;39.40;;
27580;SDS011;63557;52.302;7.964;2023-11-18T05:07:09;239.60;;;36.28;;
27580;SDS011;63557;52.302;7.964;2023-11-18T05:12:09;203.52;;;35.40;;
27580;SDS011;63557;52.302;7.964;2023-11-18T05:17:10;163.82;;;34.50;;
27580;SDS011;63557;52.302;7.964;2023-11-18T05:22:10;210.33;;;35.77;;
27580;SDS011;63557;52.302;7.964;2023-11-18T05:27:11;231.27;;;39.57;;
27580;SDS011;63557;52.302;7.964;2023-11-18T05:32:11;195.98;;;39.05;;
27580;SDS011;63557;52.302;7.964;2023-11-18T05:37:11;188.47;;;43.30;;
27580;SDS011;63557;52.302;7.964;2023-11-18T05:42:12;149.20;;;38.15;;
27580;SDS011;63557;52.302;7.964;2023-11-18T05:47:12;175.75;;;37.58;;
27580;SDS011;63557;52.302;7.964;2023-11-18T05:52:13;136.73;;;38.60;;
27580;SDS011;63557;52.302;7.964;2023-11-18T05:57:17;154.20;;;36.72;;
27580;SDS011;63557;52.302;7.964;2023-11-18T06:02:17;134.77;;;35.30;;
27580;SDS011;63557;52.302;7.964;2023-11-18T06:07:18;163.73;;;36.83;;
27580;SDS011;63557;52.302;7.964;2023-11-18T06:12:19;133.07;;;38.15;;
27580;SDS011;63557;52.302;7.964;2023-11-18T06:17:19;108.73;;;36.97;;
27580;SDS011;63557;52.302;7.964;2023-11-18T06:22:19;118.73;;;38.67;;
27580;SDS011;63557;52.302;7.964;2023-11-18T06:27:20;98.63;;;37.03;;
27580;SDS011;63557;52.302;7.964;2023-11-18T06:32:23;109.95;;;38.38;;
27580;SDS011;63557;52.302;7.964;2023-11-18T06:37:31;110.00;;;37.65;;
27580;SDS011;63557;52.302;7.964;2023-11-18T06:42:32;127.88;;;43.95;;
27580;SDS011;63557;52.302;7.964;2023-11-18T06:47:32;117.95;;;41.38;;
27580;SDS011;63557;52.302;7.964;2023-11-18T06:52:36;116.80;;;41.58;;
27580;SDS011;63557;52.302;7.964;2023-11-18T06:57:37;131.43;;;45.17;;
27580;SDS011;63557;52.302;7.964;2023-11-18T07:02:38;141.00;;;49.03;;
27580;SDS011;63557;52.302;7.964;2023-11-18T07:07:40;127.20;;;40.75;;
27580;SDS011;63557;52.302;7.964;2023-11-18T07:12:40;116.38;;;41.33;;
27580;SDS011;63557;52.302;7.964;2023-11-18T07:17:42;121.67;;;43.67;;
27580;SDS011;63557;52.302;7.964;2023-11-18T07:22:42;129.02;;;43.85;;
27580;SDS011;63557;52.302;7.964;2023-11-18T07:27:43;115.20;;;44.50;;
27580;SDS011;63557;52.302;7.964;2023-11-18T07:32:43;115.37;;;42.03;;
27580;SDS011;63557;52.302;7.964;2023-11-18T07:37:44;133.30;;;47.72;;
27580;SDS011;63557;52.302;7.964;2023-11-18T07:42:44;109.00;;;41.35;;
27580;SDS011;63557;52.302;7.964;2023-11-18T07:47:45;114.50;;;42.05;;
27580;SDS011;63557;52.302;7.964;2023-11-18T07:52:46;112.63;;;42.47;;
27580;SDS011;63557;52.302;7.964;2023-11-18T07:57:47;113.65;;;41.45;;
27580;SDS011;63557;52.302;7.964;2023-11-18T08:02:47;113.38;;;38.58;;
27580;SDS011;63557;52.302;7.964;2023-11-18T08:07:49;104.10;;;39.20;;
27580;SDS011;63557;52.302;7.964;2023-11-18T08:12:49;96.55;;;40.78;;
27580;SDS011;63557;52.302;7.964;2023-11-18T08:17:51;96.80;;;38.38;;
27580;SDS011;63557;52.302;7.964;2023-11-18T08:22:51;75.20;;;34.55;;
27580;SDS011;63557;52.302;7.964;2023-11-18T08:27:52;83.55;;;34.42;;
27580;SDS011;63557;52.302;7.964;2023-11-18T08:32:53;80.15;;;36.38;;
27580;SDS011;63557;52.302;7.964;2023-11-18T08:37:53;68.10;;;31.02;;
27580;SDS011;63557;52.302;7.964;2023-11-18T08:42:54;65.10;;;30.93;;
27580;SDS011;63557;52.302;7.964;2023-11-18T08:47:56;70.43;;;33.97;;
27580;SDS011;63557;52.302;7.964;2023-11-18T08:52:56;60.15;;;31.40;;
27580;SDS011;63557;52.302;7.964;2023-11-18T08:58:00;66.22;;;31.23;;
27580;SDS011;63557;52.302;7.964;2023-11-18T09:03:03;58.03;;;28.00;;
27580;SDS011;63557;52.302;7.964;2023-11-18T09:08:06;56.45;;;28.08;;
27580;SDS011;63557;52.302;7.964;2023-11-18T09:13:06;61.70;;;29.43;;
27580;SDS011;63557;52.302;7.964;2023-11-18T09:18:06;51.23;;;27.30;;
27580;SDS011;63557;52.302;7.964;2023-11-18T09:23:10;62.05;;;28.85;;
27580;SDS011;63557;52.302;7.964;2023-11-18T09:28:10;60.83;;;28.27;;
27580;SDS011;63557;52.302;7.964;2023-11-18T09:33:14;60.15;;;29.48;;
27580;SDS011;63557;52.302;7.964;2023-11-18T09:38:18;61.78;;;32.00;;
27580;SDS011;63557;52.302;7.964;2023-11-18T09:43:19;58.63;;;29.25;;
27580;SDS011;63557;52.302;7.964;2023-11-18T09:48:22;54.08;;;28.85;;
27580;SDS011;63557;52.302;7.964;2023-11-18T09:53:25;57.25;;;29.85;;
27580;SDS011;63557;52.302;7.964;2023-11-18T09:58:35;55.53;;;28.95;;
27580;SDS011;63557;52.302;7.964;2023-11-18T10:03:41;47.25;;;25.88;;
27580;SDS011;63557;52.302;7.964;2023-11-18T10:08:43;41.78;;;23.10;;
27580;SDS011;63557;52.302;7.964;2023-11-18T10:13:46;40.40;;;22.67;;
27580;SDS011;63557;52.302;7.964;2023-11-18T10:18:49;42.30;;;22.25;;
27580;SDS011;63557;52.302;7.964;2023-11-18T10:24:00;40.38;;;22.38;;
27580;SDS011;63557;52.302;7.964;2023-11-18T10:29:05;40.03;;;22.13;;
27580;SDS011;63557;52.302;7.964;2023-11-18T10:34:08;35.55;;;21.20;;
27580;SDS011;63557;52.302;7.964;2023-11-18T10:39:13;32.83;;;21.17;;
27580;SDS011;63557;52.302;7.964;2023-11-18T10:44:14;35.60;;;20.70;;
27580;SDS011;63557;52.302;7.964;2023-11-18T10:49:15;39.92;;;21.40;;
27580;SDS011;63557;52.302;7.964;2023-11-18T10:54:17;37.83;;;20.33;;
27580;SDS011;63557;52.302;7.964;2023-11-18T10:59:19;31.10;;;19.55;;
27580;SDS011;63557;52.302;7.964;2023-11-18T11:04:19;28.25;;;19.63;;
27580;SDS011;63557;52.302;7.964;2023-11-18T11:09:23;32.13;;;19.77;;
27580;SDS011;63557;52.302;7.964;2023-11-18T11:14:29;32.28;;;17.95;;
27580;SDS011;63557;52.302;7.964;2023-11-18T11:30:08;30.95;;;16.90;;
27580;SDS011;63557;52.302;7.964;2023-11-18T11:35:15;28.33;;;16.20;;
27580;SDS011;63557;52.302;7.964;2023-11-18T11:45:22;23.58;;;14.57;;
27580;SDS011;63557;52.302;7.964;2023-11-18T11:50:31;27.75;;;15.43;;
27580;SDS011;63557;52.302;7.964;2023-11-18T12:00:33;25.80;;;15.67;;
27580;SDS011;63557;52.302;7.964;2023-11-18T12:05:35;23.00;;;14.52;;
27580;SDS011;63557;52.302;7.964;2023-11-18T12:10:53;26.65;;;13.57;;
27580;SDS011;63557;52.302;7.964;2023-11-18T12:15:55;23.35;;;14.30;;
27580;SDS011;63557;52.302;7.964;2023-11-18T12:21:04;21.63;;;13.63;;
27580;SDS011;63557;52.302;7.964;2023-11-18T12:26:37;26.13;;;14.65;;
27580;SDS011;63557;52.302;7.964;2023-11-18T12:31:38;22.85;;;12.18;;
27580;SDS011;63557;52.302;7.964;2023-11-18T12:36:47;27.40;;;14.63;;
27580;SDS011;63557;52.302;7.964;2023-11-18T12:42:07;26.45;;;14.48;;
27580;SDS011;63557;52.302;7.964;2023-11-18T12:47:20;23.80;;;14.13;;
27580;SDS011;63557;52.302;7.964;2023-11-18T12:52:22;23.92;;;13.05;;
27580;SDS011;63557;52.302;7.964;2023-11-18T12:57:27;25.83;;;15.13;;
27580;SDS011;63557;52.302;7.964;2023-11-18T13:02:31;25.23;;;13.82;;
27580;SDS011;63557;52.302;7.964;2023-11-18T13:07:32;26.67;;;15.55;;
27580;SDS011;63557;52.302;7.964;2023-11-18T13:12:32;25.33;;;14.73;;
27580;SDS011;63557;52.302;7.964;2023-11-18T13:17:34;23.85;;;14.98;;
27580;SDS011;63557;52.302;7.964;2023-11-18T13:22:34;24.80;;;14.03;;
27580;SDS011;63557;52.302;7.964;2023-11-18T13:27:35;23.95;;;14.10;;
27580;SDS011;63557;52.302;7.964;2023-11-18T13:32:36;28.98;;;16.20;;
27580;SDS011;63557;52.302;7.964;2023-11-18T13:37:36;35.85;;;17.45;;
27580;SDS011;63557;52.302;7.964;2023-11-18T13:42:37;33.75;;;16.80;;
27580;SDS011;63557;52.302;7.964;2023-11-18T13:47:39;29.80;;;16.13;;
27580;SDS011;63557;52.302;7.964;2023-11-18T13:52:39;25.90;;;15.90;;
27580;SDS011;63557;52.302;7.964;2023-11-18T13:57:40;33.03;;;16.13;;
27580;SDS011;63557;52.302;7.964;2023-11-18T14:02:40;28.83;;;15.90;;
27580;SDS011;63557;52.302;7.964;2023-11-18T14:07:41;33.78;;;18.10;;
27580;SDS011;63557;52.302;7.964;2023-11-18T14:18:01;32.83;;;16.30;;
27580;SDS011;63557;52.302;7.964;2023-11-18T14:23:01;34.85;;;18.70;;
27580;SDS011;63557;52.302;7.964;2023-11-18T14:28:03;31.17;;;18.45;;
27580;SDS011;63557;52.302;7.964;2023-11-18T14:33:04;31.42;;;17.45;;
27580;SDS011;63557;52.302;7.964;2023-11-18T14:38:04;33.23;;;17.20;;
27580;SDS011;63557;52.302;7.964;2023-11-18T14:43:08;29.65;;;17.50;;
27580;SDS011;63557;52.302;7.964;2023-11-18T14:48:08;26.30;;;15.40;;
27580;SDS011;63557;52.302;7.964;2023-11-18T14:53:09;30.70;;;17.17;;
27580;SDS011;63557;52.302;7.964;2023-11-18T14:58:09;25.88;;;16.48;;
27580;SDS011;63557;52.302;7.964;2023-11-18T15:03:12;23.77;;;14.80;;
27580;SDS011;63557;52.302;7.964;2023-11-18T15:08:12;28.70;;;16.20;;
27580;SDS011;63557;52.302;7.964;2023-11-18T15:13:12;29.92;;;15.93;;
27580;SDS011;63557;52.302;7.964;2023-11-18T15:18:15;21.45;;;12.32;;
27580;SDS011;63557;52.302;7.964;2023-11-18T15:23:17;20.08;;;10.60;;
27580;SDS011;63557;52.302;7.964;2023-11-18T15:28:18;24.10;;;13.05;;
27580;SDS011;63557;52.302;7.964;2023-11-18T15:33:18;26.45;;;14.23;;
27580;SDS011;63557;52.302;7.964;2023-11-18T15:38:19;19.93;;;11.57;;
27580;SDS011;63557;52.302;7.964;2023-11-18T15:43:20;20.15;;;11.98;;
27580;SDS011;63557;52.302;7.964;2023-11-18T15:48:21;23.92;;;13.85;;
27580;SDS011;63557;52.302;7.964;2023-11-18T15:53:22;26.50;;;13.20;;
27580;SDS011;63557;52.302;7.964;2023-11-18T15:58:23;22.73;;;12.38;;
27580;SDS011;63557;52.302;7.964;2023-11-18T16:03:26;20.70;;;10.95;;
27580;SDS011;63557;52.302;7.964;2023-11-18T16:08:27;15.93;;;10.63;;
27580;SDS011;63557;52.302;7.964;2023-11-18T16:13:28;15.27;;;9.15;;
27580;SDS011;63557;52.302;7.964;2023-11-18T16:18:28;14.35;;;8.13;;
27580;SDS011;63557;52.302;7.964;2023-11-18T16:23:29;18.63;;;8.27;;
27580;SDS011;63557;52.302;7.964;2023-11-18T16:28:34;11.75;;;7.50;;
27580;SDS011;63557;52.302;7.964;2023-11-18T16:33:35;11.77;;;7.37;;
27580;SDS011;63557;52.302;7.964;2023-11-18T16:38:35;11.02;;;6.25;;
27580;SDS011;63557;52.302;7.964;2023-11-18T16:43:36;9.57;;;6.57;;
27580;SDS011;63557;52.302;7.964;2023-11-18T16:48:36;10.67;;;6.77;;
27580;SDS011;63557;52.302;7.964;2023-11-18T16:53:36;9.23;;;6.18;;
27580;SDS011;63557;52.302;7.964;2023-11-18T16:58:37;12.20;;;8.20;;
27580;SDS011;63557;52.302;7.964;2023-11-18T17:03:39;12.50;;;5.68;;
27580;SDS011;63557;52.302;7.964;2023-11-18T17:08:39;10.67;;;6.07;;
27580;SDS011;63557;52.302;7.964;2023-11-18T17:13:40;14.68;;;9.07;;
27580;SDS011;63557;52.302;7.964;2023-11-18T17:18:41;23.63;;;12.90;;
27580;SDS011;63557;52.302;7.964;2023-11-18T17:23:41;9.90;;;6.40;;
27580;SDS011;63557;52.302;7.964;2023-11-18T17:28:43;10.45;;;6.75;;
27580;SDS011;63557;52.302;7.964;2023-11-18T17:33:44;21.40;;;14.77;;
27580;SDS011;63557;52.302;7.964;2023-11-18T17:38:46;9.70;;;7.22;;
27580;SDS011;63557;52.302;7.964;2023-11-18T17:43:49;11.38;;;8.15;;
27580;SDS011;63557;52.302;7.964;2023-11-18T17:48:49;10.20;;;7.40;;
27580;SDS011;63557;52.302;7.964;2023-11-18T17:53:50;11.97;;;7.07;;
27580;SDS011;63557;52.302;7.964;2023-11-18T17:58:50;12.60;;;7.45;;
27580;SDS011;63557;52.302;7.964;2023-11-18T18:03:51;11.75;;;8.18;;
27580;SDS011;63557;52.302;7.964;2023-11-18T18:08:52;7.37;;;5.57;;
27580;SDS011;63557;52.302;7.964;2023-11-18T18:13:52;11.00;;;7.70;;
27580;SDS011;63557;52.302;7.964;2023-11-18T18:18:52;7.90;;;6.93;;
27580;SDS011;63557;52.302;7.964;2023-11-18T18:23:53;12.98;;;8.25;;
27580;SDS011;63557;52.302;7.964;2023-11-18T18:28:56;8.68;;;6.97;;
27580;SDS011;63557;52.302;7.964;2023-11-18T18:33:56;10.83;;;7.43;;
27580;SDS011;63557;52.302;7.964;2023-11-18T18:38:57;8.87;;;6.73;;
27580;SDS011;63557;52.302;7.964;2023-11-18T18:43:58;8.80;;;6.20;;
27580;SDS011;63557;52.302;7.964;2023-11-18T18:48:59;9.32;;;6.72;;
27580;SDS011;63557;52.302;7.964;2023-11-18T18:53:59;7.77;;;5.83;;
27580;SDS011;63557;52.302;7.964;2023-11-18T18:58:59;6.00;;;5.37;;
27580;SDS011;63557;52.302;7.964;2023-11-18T19:04:00;7.80;;;6.53;;
27580;SDS011;63557;52.302;7.964;2023-11-18T19:09:01;8.98;;;5.18;;
27580;SDS011;63557;52.302;7.964;2023-11-18T19:14:02;8.77;;;6.15;;
27580;SDS011;63557;52.302;7.964;2023-11-18T19:19:02;9.60;;;5.25;;
27580;SDS011;63557;52.302;7.964;2023-11-18T19:24:02;7.38;;;5.35;;
27580;SDS011;63557;52.302;7.964;2023-11-18T19:29:03;6.47;;;4.72;;
27580;SDS011;63557;52.302;7.964;2023-11-18T19:34:03;4.97;;;4.35;;
27580;SDS011;63557;52.302;7.964;2023-11-18T19:39:04;4.38;;;3.88;;
27580;SDS011;63557;52.302;7.964;2023-11-18T19:44:04;7.43;;;5.13;;
27580;SDS011;63557;52.302;7.964;2023-11-18T19:49:04;7.67;;;5.77;;
27580;SDS011;63557;52.302;7.964;2023-11-18T19:54:05;7.30;;;5.67;;
27580;SDS011;63557;52.302;7.964;2023-11-18T19:59:05;3.80;;;3.40;;
27580;SDS011;63557;52.302;7.964;2023-11-18T20:04:07;4.30;;;3.90;;
27580;SDS011;63557;52.302;7.964;2023-11-18T20:09:08;3.40;;;3.10;;
27580;SDS011;63557;52.302;7.964;2023-11-18T20:14:08;3.77;;;3.27;;
27580;SDS011;63557;52.302;7.964;2023-11-18T20:19:08;4.57;;;3.80;;
27580;SDS011;63557;52.302;7.964;2023-11-18T20:24:09;5.07;;;4.30;;
27580;SDS011;63557;52.302;7.964;2023-11-18T20:29:10;4.88;;;4.38;;
27580;SDS011;63557;52.302;7.964;2023-11-18T20:34:10;5.35;;;4.85;;
27580;SDS011;63557;52.302;7.964;2023-11-18T20:39:11;6.75;;;5.85;;
27580;SDS011;63557;52.302;7.964;2023-11-18T20:44:17;9.23;;;5.32;;
27580;SDS011;63557;52.302;7.964;2023-11-18T20:49:18;11.10;;;7.00;;
27580;SDS011;63557;52.302;7.964;2023-11-18T20:54:18;5.03;;;4.43;;
27580;SDS011;63557;52.302;7.964;2023-11-18T20:59:18;8.15;;;6.57;;
27580;SDS011;63557;52.302;7.964;2023-11-18T21:04:19;6.18;;;5.32;;
27580;SDS011;63557;52.302;7.964;2023-11-18T21:09:20;9.33;;;6.53;;
27580;SDS011;63557;52.302;7.964;2023-11-18T21:14:21;8.35;;;6.93;;
27580;SDS011;63557;52.302;7.964;2023-11-18T21:19:22;11.53;;;7.83;;
27580;SDS011;63557;52.302;7.964;2023-11-18T21:24:23;11.48;;;8.60;;
27580;SDS011;63557;52.302;7.964;2023-11-18T21:29:23;14.82;;;10.02;;
27580;SDS011;63557;52.302;7.964;2023-11-18T21:34:24;16.52;;;11.77;;
27580;SDS011;63557;52.302;7.964;2023-11-18T21:39:24;16.50;;;12.80;;
27580;SDS011;63557;52.302;7.964;2023-11-18T21:44:26;17.83;;;13.57;;
27580;SDS011;63557;52.302;7.964;2023-11-18T21:49:26;18.57;;;13.63;;
27580;SDS011;63557;52.302;7.964;2023-11-18T21:54:26;20.50;;;13.02;;
27580;SDS011;63557;52.302;7.964;2023-11-18T21:59:30;19.92;;;14.95;;
27580;SDS011;63557;52.302;7.964;2023-11-18T22:04:30;20.33;;;13.53;;
27580;SDS011;63557;52.302;7.964;2023-11-18T22:09:31;16.25;;;12.73;;
27580;SDS011;63557;52.302;7.964;2023-11-18T22:14:32;20.13;;;12.80;;
27580;SDS011;63557;52.302;7.964;2023-11-18T22:19:32;20.15;;;13.95;;
27580;SDS011;63557;52.302;7.964;2023-11-18T22:24:33;21.50;;;14.65;;
27580;SDS011;63557;52.302;7.964;2023-11-18T22:29:33;23.00;;;15.43;;
27580;SDS011;63557;52.302;7.964;2023-11-18T22:34:33;23.43;;;15.60;;
27580;SDS011;63557;52.302;7.964;2023-11-18T22:39:35;22.45;;;16.10;;
27580;SDS011;63557;52.302;7.964;2023-11-18T22:44:36;21.08;;;14.73;;
27580;SDS011;63557;52.302;7.964;2023-11-18T22:49:36;27.80;;;15.77;;
27580;SDS011;63557;52.302;7.964;2023-11-18T22:54:37;21.85;;;15.73;;
27580;SDS011;63557;52.302;7.964;2023-11-18T22:59:41;29.85;;;16.73;;
27580;SDS011;63557;52.302;7.964;2023-11-18T23:04:41;30.03;;;17.40;;
27580;SDS011;63557;52.302;7.964;2023-11-18T23:09:41;32.80;;;19.23;;
27580;SDS011;63557;52.302;7.964;2023-11-18T23:14:42;45.93;;;21.30;;
27580;SDS011;63557;52.302;7.964;2023-11-18T23:19:42;37.05;;;21.70;;
27580;SDS011;63557;52.302;7.964;2023-11-18T23:24:43;42.33;;;21.52;;
27580;SDS011;63557;52.302;7.964;2023-11-18T23:29:43;42.07;;;21.97;;
27580;SDS011;63557;52.302;7.964;2023-11-18T23:34:43;40.50;;;22.20;;
27580;SDS011;63557;52.302;7.964;2023-11-18T23:39:44;43.63;;;23.90;;
27580;SDS011;63557;52.302;7.964;2023-11-18T23:44:45;42.75;;;22.85;;
27580;SDS011;63557;52.302;7.964;2023-11-18T23:49:45;45.35;;;22.40;;
27580;SDS011;63557;52.302;7.964;2023-11-18T23:54:46;41.20;;;23.58;;
27580;SDS011;63557;52.302;7.964;2023-11-18T23:59:48;34.38;;;19.90;;
